Aérodrome :
LOGIN :

S'inscrire | Disclaimer

   EN    FR    IT 

 










Légende :    VFR   VFR Marginal   IFR   IFR Intensif   IFR Très Intensif
Visi : 
Plafond : 
>= 8 km
>= 3000ft
5 à 8 km
1000 à 3000 ft
1500m à 5 km
500 à 1000 ft
800 à 1500m
200 à 500 ft
< 800m
< 200 ft
Symboles :   Orages  Brouillard  Fortes neiges  Fortes précipitations  Vent > 20 kt
SIGMETs :   Divers  Orages  Givrage  Turbulence  Onde Orograph.  Cendres Volcan.






- Altitude de l'aérodrome : 322 ft


LHSN - Szolnok

DERNIER METAR :
  • 032045Z 28002KT CAVOK 25/15 Q1016 NOSIG RMK BLU

METARs EXPIRÉS :
  • 032015Z 30002KT CAVOK 27/15 Q1016 NOSIG RMK BLU
  • 031945Z 29004KT 260V320 CAVOK 28/15 Q1016 NOSIG RMK BLU
  • 031915Z 27004KT CAVOK 28/16 Q1015 NOSIG RMK BLU
  • 031845Z 26002KT CAVOK 29/16 Q1015 NOSIG RMK BLU
  • 031815Z 30002KT CAVOK 31/15 Q1015 NOSIG RMK BLU
  • 030445Z 05008KT CAVOK 21/15 Q1019 NOSIG RMK BLU

TAF TAF LHSN
Valide du 03 à 21h jusqu'au 04 à 06h UTC


032015Z 0321/0406 30005KT CAVOK
TEMPO 0321/0404 VRB03KT



MET'MAP, la Météo Aéronautique d'un coup d'oeil ! - Copyright ORBIFLY Décembre 2007 - Disclaimer

ORBIFLY MET'MAP TEAM :

Programmation & Développement : Alexandra Zaïnal
Sur une idée originale de : Baudouin d'Aumeries
Soutien technique & logistique : Manuel Goepfert
Assistance : Marc-Olivier Méhu




SOURCES & CREDITS :

   NOAA